Time;durP1;ratioP1;P1;durP2;ratioP2;P2;SDS_P1;SDS_P2;PMS_P1;PMS_P2;Temp;Humidity;BMP_temperature;BMP_pressure;BME280_temperature;BME280_humidity;BME280_pressure;Samples;Min_cycle;Max_cycle;Signal;HPM_P1;HPM_P2
2024/04/18 00:02:00;;;;;;;3.38;2.13;;;7.00;90.00;;;;;;5364613;26;20036;-62
2024/04/18 00:04:27;;;;;;;2.28;1.90;;;7.00;90.00;;;;;;5356639;26;20007;-63
2024/04/18 00:06:52;;;;;;;3.47;2.00;;;6.90;90.00;;;;;;5372377;26;20274;-64
2024/04/18 00:09:18;;;;;;;3.30;2.20;;;6.90;90.10;;;;;;5368690;26;20008;-62
2024/04/18 00:11:43;;;;;;;2.75;2.28;;;6.90;90.10;;;;;;5360169;26;19996;-62
2024/04/18 00:14:09;;;;;;;4.78;2.20;;;6.90;90.10;;;;;;5359918;26;20027;-64
2024/04/18 00:16:35;;;;;;;2.20;1.95;;;7.00;90.20;;;;;;5360629;26;20040;-62
2024/04/18 00:19:00;;;;;;;2.45;2.20;;;7.00;90.20;;;;;;5356443;26;20056;-63
2024/04/18 00:21:26;;;;;;;2.78;2.20;;;6.90;90.20;;;;;;5361917;26;20077;-64
2024/04/18 00:23:51;;;;;;;3.22;2.33;;;6.90;90.30;;;;;;5356066;26;20005;-63
2024/04/18 00:26:17;;;;;;;3.17;2.20;;;6.90;90.30;;;;;;5358748;26;20000;-61
2024/04/18 00:28:43;;;;;;;3.35;2.30;;;6.90;90.20;;;;;;5361406;26;23050;-64
2024/04/18 00:31:08;;;;;;;3.38;2.10;;;7.00;90.30;;;;;;5357067;26;20076;-63
2024/04/18 00:33:34;;;;;;;2.22;2.03;;;7.00;90.30;;;;;;5359398;26;20040;-64
2024/04/18 00:35:59;;;;;;;2.85;2.08;;;7.00;90.30;;;;;;5355884;26;20063;-63
2024/04/18 00:38:25;;;;;;;2.80;2.10;;;7.00;90.30;;;;;;5368180;26;19996;-64
2024/04/18 00:40:50;;;;;;;3.33;2.20;;;7.00;90.30;;;;;;5354477;26;20359;-63
2024/04/18 00:43:20;;;;;;;3.13;2.28;;;6.90;90.30;;;;;;5368755;26;21354;-63
2024/04/18 00:45:46;;;;;;;2.78;1.90;;;6.90;90.40;;;;;;5350840;26;19997;-63
2024/04/18 00:48:12;;;;;;;5.30;2.80;;;6.90;90.40;;;;;;5362711;26;20338;-64
2024/04/18 00:50:38;;;;;;;6.80;3.70;;;6.90;90.40;;;;;;5347258;26;20015;-61
2024/04/18 00:53:04;;;;;;;5.30;3.10;;;6.90;90.40;;;;;;5362556;26;20001;-61
2024/04/18 00:55:30;;;;;;;3.38;2.47;;;6.90;90.50;;;;;;5363740;26;20012;-63
2024/04/18 00:57:56;;;;;;;3.40;2.13;;;6.90;90.50;;;;;;5359932;26;20003;-62
2024/04/18 01:00:22;;;;;;;3.22;2.10;;;6.90;90.50;;;;;;5356999;26;20444;-62
2024/04/18 01:02:48;;;;;;;2.40;1.77;;;6.90;90.50;;;;;;5358648;26;20022;-59
2024/04/18 01:05:14;;;;;;;2.65;2.00;;;6.80;90.40;;;;;;5362066;26;20000;-63
2024/04/18 01:07:40;;;;;;;4.10;2.10;;;6.80;90.40;;;;;;5351327;26;20019;-64
2024/04/18 01:10:06;;;;;;;3.08;1.95;;;6.80;90.50;;;;;;5360767;26;20443;-61
2024/04/18 01:12:31;;;;;;;2.83;1.90;;;6.70;90.40;;;;;;5365020;26;20014;-63
2024/04/18 01:14:57;;;;;;;2.97;2.08;;;6.70;90.50;;;;;;5356064;26;20015;-63
2024/04/18 01:17:22;;;;;;;2.25;1.80;;;6.70;90.50;;;;;;5365506;26;20011;-61
2024/04/18 01:19:48;;;;;;;2.00;1.80;;;6.70;90.50;;;;;;5356709;26;20013;-63
2024/04/18 01:22:13;;;;;;;3.45;2.00;;;6.60;90.50;;;;;;5344713;26;20019;-62
2024/04/18 01:24:39;;;;;;;2.70;2.10;;;6.60;90.50;;;;;;5365585;26;20082;-60
2024/04/18 01:27:04;;;;;;;3.72;1.98;;;6.50;90.50;;;;;;5365382;26;20011;-62
2024/04/18 01:29:30;;;;;;;3.00;2.00;;;6.50;90.50;;;;;;5369332;26;20011;-62
2024/04/18 01:31:55;;;;;;;2.15;1.95;;;6.50;90.60;;;;;;5358297;26;20011;-61
2024/04/18 01:34:21;;;;;;;3.20;2.20;;;6.50;90.50;;;;;;5361707;26;19997;-62
2024/04/18 01:36:48;;;;;;;3.47;2.03;;;6.50;90.60;;;;;;5347076;26;19997;-59
2024/04/18 01:39:13;;;;;;;3.05;1.98;;;6.40;90.60;;;;;;5364006;26;20466;-65
2024/04/18 01:41:39;;;;;;;3.08;2.35;;;6.40;90.60;;;;;;5362291;26;20005;-62
2024/04/18 01:44:06;;;;;;;5.20;2.97;;;6.30;90.90;;;;;;5356391;26;20012;-62
2024/04/18 01:46:32;;;;;;;6.10;3.13;;;6.40;90.60;;;;;;5370833;26;20008;-63
2024/04/18 01:48:58;;;;;;;2.67;2.20;;;6.30;90.60;;;;;;5364796;26;20461;-60
2024/04/18 01:51:23;;;;;;;2.30;2.10;;;6.30;90.60;;;;;;5352653;26;20046;-62
2024/04/18 01:53:49;;;;;;;3.33;2.08;;;6.30;90.60;;;;;;5357071;26;20013;-63
2024/04/18 01:56:14;;;;;;;4.07;2.13;;;6.30;90.60;;;;;;5349597;26;20001;-60
2024/04/18 01:58:40;;;;;;;2.83;2.03;;;6.20;90.60;;;;;;5346663;26;20020;-63
2024/04/18 02:01:05;;;;;;;4.28;2.20;;;6.20;90.60;;;;;;5360590;26;20323;-63
2024/04/18 02:03:31;;;;;;;4.25;2.00;;;6.20;90.60;;;;;;5375285;26;19997;-64
2024/04/18 02:05:56;;;;;;;2.58;2.00;;;6.10;90.60;;;;;;5358098;26;20011;-64
2024/04/18 02:08:22;;;;;;;2.85;1.98;;;6.10;90.70;;;;;;5353820;26;20017;-63
2024/04/18 02:10:50;;;;;;;2.08;1.88;;;6.00;90.70;;;;;;5356185;26;19996;-63
2024/04/18 02:13:16;;;;;;;2.72;2.10;;;6.00;90.70;;;;;;5350718;26;20347;-64
2024/04/18 02:15:41;;;;;;;3.17;2.10;;;6.00;90.80;;;;;;5362121;26;20020;-63
2024/04/18 02:18:07;;;;;;;3.28;2.10;;;6.00;90.70;;;;;;5364736;26;20004;-64
2024/04/18 02:20:33;;;;;;;2.70;2.17;;;5.90;90.70;;;;;;5377797;26;20001;-61
2024/04/18 02:22:58;;;;;;;3.10;2.10;;;5.90;90.80;;;;;;5352925;26;19996;-63
2024/04/18 02:25:24;;;;;;;4.00;2.75;;;5.80;90.80;;;;;;5356403;26;20000;-65
2024/04/18 02:27:49;;;;;;;3.70;2.80;;;5.80;90.90;;;;;;5364587;26;20447;-65
2024/04/18 02:30:15;;;;;;;4.78;2.80;;;5.80;90.90;;;;;;5358720;26;20215;-63
2024/04/18 02:32:42;;;;;;;4.78;2.97;;;5.70;90.90;;;;;;5353593;26;20000;-61
2024/04/18 02:35:07;;;;;;;4.18;2.67;;;5.70;91.00;;;;;;5350073;26;20401;-61
2024/04/18 02:37:34;;;;;;;3.38;2.60;;;5.70;91.00;;;;;;5341655;26;20005;-62
2024/04/18 02:39:59;;;;;;;4.95;2.50;;;5.70;91.00;;;;;;5355850;26;19993;-62
2024/04/18 02:42:25;;;;;;;4.25;2.45;;;5.70;91.00;;;;;;5367319;26;20453;-63
2024/04/18 02:44:51;;;;;;;5.03;2.20;;;5.60;91.00;;;;;;5378701;26;20007;-63
2024/04/18 02:47:17;;;;;;;4.50;2.50;;;5.60;91.00;;;;;;5359721;26;20532;-61
2024/04/18 02:49:43;;;;;;;5.18;2.28;;;5.60;91.00;;;;;;5348865;26;20016;-60
2024/04/18 02:52:08;;;;;;;4.70;2.50;;;5.60;91.00;;;;;;5351382;26;20316;-63
2024/04/18 02:54:34;;;;;;;3.72;2.42;;;5.50;91.10;;;;;;5353552;26;19997;-64
2024/04/18 02:56:59;;;;;;;4.60;2.75;;;5.50;91.10;;;;;;5366440;26;20073;-64
2024/04/18 02:59:25;;;;;;;6.43;3.05;;;5.50;91.10;;;;;;5363879;26;20019;-63
2024/04/18 03:01:51;;;;;;;5.45;2.90;;;5.50;91.10;;;;;;5360416;26;20005;-60
2024/04/18 03:04:16;;;;;;;2.88;2.40;;;5.40;91.10;;;;;;5365141;26;20114;-63
2024/04/18 03:06:44;;;;;;;2.67;2.05;;;5.40;91.10;;;;;;5355572;26;20000;-64
2024/04/18 03:09:11;;;;;;;2.85;2.20;;;5.40;91.10;;;;;;5347470;26;19997;-62
2024/04/18 03:11:37;;;;;;;4.68;2.40;;;5.40;91.20;;;;;;5361344;26;20369;-64
2024/04/18 03:14:03;;;;;;;3.08;2.00;;;5.40;91.10;;;;;;5356521;26;20023;-62
2024/04/18 03:16:28;;;;;;;4.00;1.90;;;5.40;91.10;;;;;;5350915;26;20029;-64
2024/04/18 03:18:54;;;;;;;3.00;1.85;;;5.40;91.00;;;;;;5363600;26;20007;-64
2024/04/18 03:21:19;;;;;;;2.75;1.90;;;5.30;91.00;;;;;;5353098;26;20020;-59
2024/04/18 03:23:45;;;;;;;3.05;1.88;;;5.30;91.00;;;;;;5354954;26;20004;-63
2024/04/18 03:26:10;;;;;;;3.05;2.00;;;5.30;91.10;;;;;;5361633;26;20374;-63
2024/04/18 03:28:36;;;;;;;3.00;2.17;;;5.30;91.00;;;;;;5364388;26;20464;-64
2024/04/18 03:31:04;;;;;;;2.42;1.80;;;5.30;91.00;;;;;;5358534;26;20403;-65
2024/04/18 03:33:30;;;;;;;5.10;2.25;;;5.20;91.00;;;;;;5349696;26;20013;-63
2024/04/18 03:35:55;;;;;;;4.88;2.15;;;5.20;91.00;;;;;;5363054;26;20071;-62
2024/04/18 03:38:21;;;;;;;2.08;1.88;;;5.10;91.00;;;;;;5361772;26;20009;-64
2024/04/18 03:40:57;;;;;;;2.22;1.95;;;5.10;91.00;;;;;;5364968;26;19996;-63
2024/04/18 03:43:23;;;;;;;4.47;2.15;;;5.10;91.10;;;;;;5368115;26;20530;-63
2024/04/18 03:46:15;;;;;;;3.33;1.98;;;5.00;91.00;;;;;;5361739;26;19997;-62
2024/04/18 03:48:41;;;;;;;;;;;5.10;91.10;;;;;;5364849;26;20038;-62
2024/04/18 03:51:06;;;;;;;2.92;1.88;;;5.00;91.00;;;;;;5357440;26;19934;-62
2024/04/18 03:53:32;;;;;;;3.25;2.10;;;5.00;91.10;;;;;;5349744;26;20028;-63
2024/04/18 03:55:57;;;;;;;4.13;2.58;;;5.00;91.10;;;;;;5357150;26;20000;-65
2024/04/18 03:58:23;;;;;;;4.07;2.33;;;5.00;91.10;;;;;;5357555;26;20000;-63
2024/04/18 04:00:49;;;;;;;4.32;2.00;;;4.90;91.10;;;;;;5363966;26;20072;-63
2024/04/18 04:03:14;;;;;;;3.88;2.30;;;4.90;91.10;;;;;;5363057;26;20041;-64
2024/04/18 04:05:40;;;;;;;3.30;2.22;;;4.90;91.10;;;;;;5359509;26;20000;-65
2024/04/18 04:08:05;;;;;;;2.95;2.28;;;4.90;91.10;;;;;;5367931;26;20395;-63
2024/04/18 04:10:31;;;;;;;4.53;2.10;;;4.90;91.10;;;;;;5362134;26;20019;-63
2024/04/18 04:12:56;;;;;;;5.57;2.10;;;4.90;91.00;;;;;;5360348;26;19997;-64
2024/04/18 04:15:22;;;;;;;3.60;2.00;;;4.80;91.10;;;;;;5364685;26;19993;-64
2024/04/18 04:17:47;;;;;;;4.10;2.20;;;4.80;91.00;;;;;;5354515;26;19996;-63
2024/04/18 04:20:13;;;;;;;5.88;2.40;;;4.80;91.00;;;;;;5360790;26;20466;-63
2024/04/18 04:22:39;;;;;;;3.55;2.25;;;4.70;91.00;;;;;;5343291;26;19997;-63
2024/04/18 04:25:04;;;;;;;2.90;2.17;;;4.70;91.00;;;;;;5362605;26;20016;-63
2024/04/18 04:27:30;;;;;;;5.60;1.92;;;4.70;91.00;;;;;;5363884;26;20003;-64
2024/04/18 04:29:55;;;;;;;3.33;2.35;;;4.70;91.10;;;;;;5355569;26;20023;-64
2024/04/18 04:32:22;;;;;;;4.82;2.50;;;4.70;91.10;;;;;;5370885;26;20019;-64
2024/04/18 04:34:50;;;;;;;5.65;2.38;;;4.60;91.00;;;;;;5362743;26;20075;-63
2024/04/18 04:37:19;;;;;;;2.83;2.00;;;4.60;91.10;;;;;;5364020;26;20002;-65
2024/04/18 04:39:47;;;;;;;6.57;2.72;;;4.60;91.10;;;;;;5362106;26;20000;-64
2024/04/18 04:42:13;;;;;;;3.75;2.38;;;4.60;91.10;;;;;;5356809;26;20005;-62
2024/04/18 04:44:38;;;;;;;3.70;2.28;;;4.60;91.10;;;;;;5364663;26;20011;-64
2024/04/18 04:47:04;;;;;;;5.35;2.20;;;4.60;91.10;;;;;;5350222;26;20028;-64
2024/04/18 04:49:29;;;;;;;3.80;2.40;;;4.60;91.10;;;;;;5363149;26;19996;-62
2024/04/18 04:51:55;;;;;;;4.50;2.30;;;4.60;91.10;;;;;;5367936;26;20000;-61
2024/04/18 04:54:21;;;;;;;3.90;2.40;;;4.60;91.10;;;;;;5361739;26;19997;-63
2024/04/18 04:56:46;;;;;;;5.18;2.70;;;4.60;91.00;;;;;;5364018;26;20389;-64
2024/04/18 04:59:12;;;;;;;3.78;2.33;;;4.70;91.00;;;;;;5364806;26;20354;-63
2024/04/18 05:01:37;;;;;;;3.78;2.10;;;4.60;91.00;;;;;;5366074;26;20012;-63
2024/04/18 05:04:03;;;;;;;3.40;2.20;;;4.70;91.00;;;;;;5371697;26;20028;-64
2024/04/18 05:06:28;;;;;;;4.07;2.60;;;4.70;91.00;;;;;;5355813;26;19997;-64
2024/04/18 05:08:54;;;;;;;4.75;2.15;;;4.70;91.00;;;;;;5352690;26;20001;-64
2024/04/18 05:11:20;;;;;;;5.28;2.70;;;4.80;91.00;;;;;;5360936;26;20592;-64
2024/04/18 05:13:45;;;;;;;3.78;2.42;;;4.70;90.90;;;;;;5359333;26;20024;-64
2024/04/18 05:16:11;;;;;;;4.50;2.58;;;4.80;91.20;;;;;;5365816;26;20114;-61
2024/04/18 05:18:36;;;;;;;3.53;2.33;;;4.90;91.00;;;;;;5359081;26;20028;-64
2024/04/18 05:21:02;;;;;;;6.07;2.80;;;4.90;91.00;;;;;;5361765;26;20253;-63
2024/04/18 05:23:27;;;;;;;10.80;2.92;;;4.90;90.90;;;;;;5370773;26;20001;-65
2024/04/18 05:25:53;;;;;;;4.05;2.45;;;5.00;90.90;;;;;;5350627;26;20073;-63
2024/04/18 05:28:29;;;;;;;3.83;2.60;;;5.00;90.90;;;;;;5358866;26;20051;-64
2024/04/18 05:31:03;;;;;;;3.35;2.45;;;5.40;91.40;;;;;;5359609;26;20332;-64
2024/04/18 05:33:32;;;;;;;3.80;2.63;;;6.80;91.20;;;;;;5351574;26;20012;-64
2024/04/18 05:35:58;;;;;;;5.55;2.70;;;8.20;88.90;;;;;;5358502;26;20015;-63
2024/04/18 05:38:24;;;;;;;7.25;2.70;;;9.50;84.70;;;;;;5362011;26;20018;-64
2024/04/18 05:40:50;;;;;;;4.55;2.47;;;10.50;81.50;;;;;;5361783;26;20331;-63
2024/04/18 05:43:16;;;;;;;7.15;3.05;;;11.30;78.80;;;;;;5365351;26;20226;-62
2024/04/18 05:45:48;;;;;;;5.85;2.63;;;12.20;76.50;;;;;;5361870;26;20010;-63
2024/04/18 05:48:14;;;;;;;4.65;2.38;;;12.50;74.10;;;;;;5350176;26;20048;-63
2024/04/18 05:50:40;;;;;;;8.00;2.70;;;12.20;73.30;;;;;;5359216;26;20004;-62
2024/04/18 05:53:06;;;;;;;3.30;2.60;;;11.50;73.50;;;;;;5360677;26;20013;-65
2024/04/18 05:55:32;;;;;;;4.55;2.47;;;10.80;74.40;;;;;;5351710;26;20080;-62
2024/04/18 05:57:58;;;;;;;3.60;2.55;;;10.20;75.50;;;;;;5360671;26;20089;-64
2024/04/18 06:00:23;;;;;;;5.07;2.95;;;9.70;76.70;;;;;;5366353;26;20007;-63
2024/04/18 06:02:49;;;;;;;5.75;2.30;;;9.30;77.90;;;;;;5359677;26;20672;-65
2024/04/18 06:05:15;;;;;;;3.90;2.47;;;9.20;78.90;;;;;;5365873;26;20471;-64
2024/04/18 06:07:40;;;;;;;5.13;2.22;;;9.80;79.30;;;;;;5353790;26;20446;-62
2024/04/18 06:10:06;;;;;;;3.05;2.45;;;11.20;77.00;;;;;;5364850;26;20466;-61
2024/04/18 06:12:32;;;;;;;3.50;2.33;;;12.70;73.30;;;;;;5358649;26;20081;-65
2024/04/18 06:14:58;;;;;;;3.47;2.35;;;13.90;70.00;;;;;;5367397;26;20008;-62
2024/04/18 06:17:23;;;;;;;3.97;2.30;;;15.00;67.00;;;;;;5355210;26;20001;-64
2024/04/18 06:19:50;;;;;;;3.13;2.13;;;15.80;64.20;;;;;;5364564;26;20004;-63
2024/04/18 06:22:15;;;;;;;3.78;2.10;;;16.40;62.90;;;;;;5351599;26;20022;-63
2024/04/18 06:24:41;;;;;;;2.95;2.03;;;17.10;61.30;;;;;;5361579;26;20009;-61
2024/04/18 06:27:07;;;;;;;4.95;1.90;;;17.70;59.80;;;;;;5346843;26;20012;-62
2024/04/18 06:29:33;;;;;;;4.15;2.10;;;18.30;58.50;;;;;;5360027;26;20455;-64
2024/04/18 06:31:59;;;;;;;2.50;1.75;;;18.80;57.10;;;;;;5366157;26;20015;-63
2024/04/18 06:34:24;;;;;;;3.40;1.92;;;19.00;56.40;;;;;;5364102;26;20066;-62
2024/04/18 06:36:50;;;;;;;4.50;1.90;;;19.40;55.30;;;;;;5355183;26;19993;-63
2024/04/18 06:39:16;;;;;;;2.13;1.60;;;19.70;54.60;;;;;;5359201;26;20028;-63
2024/04/18 06:41:41;;;;;;;3.05;1.90;;;20.00;54.00;;;;;;5352584;26;19996;-63
2024/04/18 06:44:07;;;;;;;3.63;1.83;;;20.40;53.70;;;;;;5359507;26;20001;-63
2024/04/18 06:46:34;;;;;;;4.72;2.00;;;20.80;52.00;;;;;;5367581;26;19996;-63
2024/04/18 06:49:00;;;;;;;2.55;1.70;;;21.20;51.50;;;;;;5370672;26;20138;-64
2024/04/18 06:51:26;;;;;;;5.50;1.80;;;21.30;50.70;;;;;;5358622;26;19993;-65
2024/04/18 06:53:51;;;;;;;3.30;1.95;;;21.30;50.40;;;;;;5358281;26;20374;-63
2024/04/18 06:56:17;;;;;;;2.80;1.60;;;21.60;49.60;;;;;;5356941;26;20028;-62
2024/04/18 06:58:42;;;;;;;3.58;1.60;;;21.60;49.40;;;;;;5354480;26;20074;-64
2024/04/18 07:01:08;;;;;;;4.13;1.88;;;21.60;49.20;;;;;;5363524;26;20000;-66
2024/04/18 07:03:33;;;;;;;5.13;1.55;;;21.80;49.10;;;;;;5341686;26;20012;-62
2024/04/18 07:05:59;;;;;;;4.75;1.95;;;21.90;48.90;;;;;;5344543;26;20459;-63
2024/04/18 07:08:24;;;;;;;4.80;1.55;;;22.20;48.50;;;;;;5357571;26;19996;-65
2024/04/18 07:10:51;;;;;;;3.42;1.52;;;22.50;48.00;;;;;;5365187;26;19996;-63
2024/04/18 07:13:17;;;;;;;3.92;1.60;;;22.40;47.40;;;;;;5353606;26;19997;-64
2024/04/18 07:15:42;;;;;;;4.38;1.42;;;22.70;48.10;;;;;;5363602;26;20000;-63
2024/04/18 07:18:08;;;;;;;4.88;1.38;;;22.90;47.00;;;;;;5352638;26;20119;-61
2024/04/18 07:20:34;;;;;;;3.72;1.60;;;23.00;46.70;;;;;;5346127;26;20015;-62
2024/04/18 07:22:59;;;;;;;3.92;1.40;;;22.90;46.20;;;;;;5365683;26;20463;-64
2024/04/18 07:25:25;;;;;;;2.53;1.20;;;23.00;46.20;;;;;;5358442;26;20008;-61
2024/04/18 07:27:50;;;;;;;2.63;1.17;;;23.10;45.90;;;;;;5349466;26;19996;-62
2024/04/18 07:30:16;;;;;;;4.55;1.30;;;23.20;45.70;;;;;;5345744;26;20371;-64
2024/04/18 07:32:42;;;;;;;3.30;1.30;;;23.40;45.40;;;;;;5370861;26;20011;-64
2024/04/18 07:35:08;;;;;;;2.65;1.20;;;23.60;44.70;;;;;;5362524;26;20019;-64
2024/04/18 07:37:33;;;;;;;2.78;1.10;;;23.40;44.60;;;;;;5371905;26;20344;-62
2024/04/18 07:40:08;;;;;;;4.95;1.30;;;23.60;44.30;;;;;;5352425;26;19997;-62
2024/04/18 07:42:33;;;;;;;3.28;1.25;;;23.90;44.10;;;;;;5354899;26;19998;-63
2024/04/18 07:44:59;;;;;;;2.50;1.30;;;23.70;43.40;;;;;;5353381;26;20455;-63
2024/04/18 07:47:24;;;;;;;3.35;1.10;;;23.70;43.60;;;;;;5343435;26;20269;-64
2024/04/18 07:49:50;;;;;;;3.08;1.23;;;23.70;43.50;;;;;;5353335;26;19996;-62
2024/04/18 07:52:16;;;;;;;3.97;1.30;;;23.70;43.60;;;;;;5356041;26;20008;-61
2024/04/18 07:54:41;;;;;;;2.53;1.20;;;23.80;43.60;;;;;;5356587;26;20004;-62
2024/04/18 07:57:07;;;;;;;3.70;1.23;;;23.80;43.80;;;;;;5354744;26;20007;-64
2024/04/18 07:59:32;;;;;;;3.58;1.23;;;24.10;43.70;;;;;;5365018;26;20265;-62
2024/04/18 08:01:58;;;;;;;2.78;1.35;;;23.20;44.10;;;;;;5365752;26;20051;-61
2024/04/18 08:04:24;;;;;;;2.53;1.30;;;23.20;44.10;;;;;;5355455;26;20000;-63
2024/04/18 08:06:51;;;;;;;3.20;1.50;;;22.40;44.20;;;;;;5353974;26;20327;-63
2024/04/18 08:09:17;;;;;;;2.75;1.40;;;21.20;46.30;;;;;;5361121;26;20020;-62
2024/04/18 08:11:43;;;;;;;2.97;1.35;;;21.50;46.40;;;;;;5366836;26;19996;-63
2024/04/18 08:14:08;;;;;;;3.05;1.25;;;22.20;45.80;;;;;;5348412;26;19997;-62
2024/04/18 08:16:34;;;;;;;3.15;1.40;;;22.30;45.30;;;;;;5348495;26;20036;-64
2024/04/18 08:18:59;;;;;;;2.25;1.02;;;21.90;45.40;;;;;;5358904;26;20417;-61
2024/04/18 08:21:27;;;;;;;4.40;1.30;;;21.90;45.50;;;;;;5352501;26;20000;-63
2024/04/18 08:23:52;;;;;;;1.73;0.95;;;20.70;45.00;;;;;;5358805;26;20004;-63
2024/04/18 08:26:18;;;;;;;4.43;1.10;;;20.30;46.50;;;;;;5365462;26;20469;-62
2024/04/18 08:28:44;;;;;;;2.72;1.23;;;20.20;47.00;;;;;;5362054;26;20057;-61
2024/04/18 08:31:09;;;;;;;1.95;1.05;;;19.90;47.10;;;;;;5355231;26;20024;-62
2024/04/18 08:33:35;;;;;;;3.45;1.20;;;19.50;48.60;;;;;;5362954;26;20000;-64
2024/04/18 08:36:00;;;;;;;2.95;1.10;;;18.20;48.00;;;;;;5377571;26;20009;-65
2024/04/18 08:38:26;;;;;;;1.77;1.00;;;17.50;50.50;;;;;;5366727;26;20431;-63
2024/04/18 08:40:52;;;;;;;2.75;1.10;;;17.30;51.20;;;;;;5350731;26;20016;-63
2024/04/18 08:43:18;;;;;;;3.92;1.02;;;16.90;51.90;;;;;;5343129;26;20005;-64
2024/04/18 08:45:46;;;;;;;3.47;1.02;;;16.20;52.70;;;;;;5371092;26;20019;-64
2024/04/18 08:48:13;;;;;;;2.45;0.90;;;15.60;53.10;;;;;;5362882;26;20082;-66
2024/04/18 08:50:41;;;;;;;2.58;0.98;;;14.80;53.80;;;;;;5362592;26;20402;-65
2024/04/18 08:53:07;;;;;;;2.67;1.00;;;14.20;55.00;;;;;;5355106;26;20401;-64
2024/04/18 08:55:35;;;;;;;2.28;0.80;;;14.00;55.90;;;;;;5361362;26;20016;-63
2024/04/18 08:58:05;;;;;;;2.88;0.90;;;13.90;56.20;;;;;;5367173;26;20327;-63
2024/04/18 09:00:32;;;;;;;1.50;0.88;;;13.60;55.50;;;;;;5374283;26;20307;-65
2024/04/18 09:02:59;;;;;;;1.55;0.90;;;13.40;56.10;;;;;;5351031;26;20005;-62
2024/04/18 09:05:25;;;;;;;1.55;0.90;;;13.40;57.00;;;;;;5360401;26;19997;-64
2024/04/18 09:07:51;;;;;;;3.45;1.20;;;13.40;57.60;;;;;;5370945;26;20000;-62
2024/04/18 09:10:21;;;;;;;2.40;0.70;;;13.60;58.00;;;;;;5365958;26;20047;-62
2024/04/18 09:12:48;;;;;;;2.13;0.90;;;13.80;58.10;;;;;;5365929;26;20024;-63
2024/04/18 09:15:14;;;;;;;3.58;1.10;;;13.70;57.60;;;;;;5360784;26;20026;-64
2024/04/18 09:17:40;;;;;;;2.28;0.88;;;13.40;57.30;;;;;;5355550;26;20004;-63
2024/04/18 09:20:07;;;;;;;2.35;0.80;;;13.20;57.50;;;;;;5351814;26;20023;-63
2024/04/18 09:22:32;;;;;;;1.08;0.60;;;13.30;57.30;;;;;;5362403;26;20008;-62
2024/04/18 09:24:58;;;;;;;1.35;0.65;;;13.30;56.50;;;;;;5357026;26;20015;-62
2024/04/18 09:27:24;;;;;;;4.20;1.00;;;13.40;56.70;;;;;;5352043;26;20000;-63
2024/04/18 09:29:49;;;;;;;2.13;0.70;;;13.50;56.10;;;;;;5359359;26;20004;-66
2024/04/18 09:32:16;;;;;;;3.28;0.90;;;13.70;55.80;;;;;;5368026;26;20000;-62
2024/04/18 09:34:47;;;;;;;0.85;0.80;;;13.80;55.30;;;;;;5350186;26;20001;-62
2024/04/18 09:37:15;;;;;;;2.80;0.77;;;13.80;53.90;;;;;;5359995;26;20015;-65
2024/04/18 09:39:43;;;;;;;2.60;0.90;;;13.80;54.00;;;;;;5353659;26;20004;-64
2024/04/18 09:42:40;;;;;;;1.42;0.73;;;13.80;54.80;;;;;;5365926;26;20033;-63
2024/04/18 09:45:10;;;;;;;3.10;0.90;;;13.80;54.70;;;;;;5363393;26;20003;-64
2024/04/18 09:47:39;;;;;;;2.58;0.90;;;13.70;54.40;;;;;;5356376;26;20395;-63
2024/04/18 09:50:05;;;;;;;1.90;0.75;;;13.50;54.30;;;;;;5351743;26;19997;-64
2024/04/18 09:52:32;;;;;;;4.97;0.90;;;13.50;55.10;;;;;;5351150;26;20078;-63
2024/04/18 09:55:00;;;;;;;1.35;0.70;;;13.70;55.60;;;;;;5345846;26;19997;-64
2024/04/18 09:57:27;;;;;;;2.53;1.02;;;13.90;55.90;;;;;;5350387;26;20030;-64
2024/04/18 09:59:54;;;;;;;2.70;1.35;;;13.80;56.20;;;;;;5353148;26;20008;-64
2024/04/18 10:02:21;;;;;;;2.60;0.90;;;13.60;57.10;;;;;;5363649;26;20367;-63
2024/04/18 10:04:47;;;;;;;3.55;1.20;;;13.40;57.90;;;;;;5365267;26;20018;-63
2024/04/18 10:07:15;;;;;;;1.65;0.93;;;13.30;58.40;;;;;;5361201;26;20470;-63
2024/04/18 10:09:43;;;;;;;2.33;0.98;;;13.10;58.60;;;;;;5350544;26;20084;-63
2024/04/18 10:12:09;;;;;;;2.03;1.05;;;13.00;59.10;;;;;;5367913;26;20009;-64
2024/04/18 10:14:38;;;;;;;2.83;0.90;;;13.00;59.50;;;;;;5359940;26;20510;-63
2024/04/18 10:17:04;;;;;;;3.03;1.10;;;13.10;59.50;;;;;;5365861;26;20012;-64
2024/04/18 10:19:31;;;;;;;2.75;1.10;;;13.20;59.50;;;;;;5359986;26;20010;-63
2024/04/18 10:21:57;;;;;;;2.17;0.90;;;13.40;59.60;;;;;;5361330;26;20012;-64
2024/04/18 10:24:33;;;;;;;2.45;0.93;;;13.70;59.50;;;;;;5351714;26;19996;-64
2024/04/18 10:27:01;;;;;;;1.77;0.63;;;13.80;58.80;;;;;;5362554;26;20065;-64
2024/04/18 10:29:27;;;;;;;2.83;0.90;;;13.80;58.00;;;;;;5363074;26;20001;-64
2024/04/18 10:31:54;;;;;;;2.85;1.00;;;13.80;57.80;;;;;;5358773;26;20083;-64
2024/04/18 10:34:26;;;;;;;1.42;0.80;;;13.80;57.30;;;;;;5353784;26;19996;-63
2024/04/18 10:36:52;;;;;;;1.30;0.88;;;14.00;57.30;;;;;;5346714;26;20005;-63
2024/04/18 10:39:51;;;;;;;2.35;0.90;;;13.90;57.30;;;;;;5362490;26;20000;-63
2024/04/18 10:42:21;;;;;;;2.17;1.00;;;13.70;57.50;;;;;;5366465;26;20000;-63
2024/04/18 10:44:47;;;;;;;1.60;0.93;;;13.50;58.10;;;;;;5356090;26;20450;-61
2024/04/18 10:47:13;;;;;;;3.15;0.98;;;13.40;58.50;;;;;;5365438;26;20004;-63
2024/04/18 10:49:39;;;;;;;2.67;1.02;;;13.40;58.80;;;;;;5360629;26;20459;-63
2024/04/18 10:52:08;;;;;;;2.17;0.90;;;13.40;58.70;;;;;;5354657;26;19997;-62
2024/04/18 10:54:35;;;;;;;1.80;0.75;;;13.40;58.30;;;;;;5358886;26;20327;-62
2024/04/18 10:57:01;;;;;;;2.35;0.98;;;13.40;58.00;;;;;;5360589;26;20106;-64
2024/04/18 10:59:27;;;;;;;2.75;0.93;;;13.40;57.70;;;;;;5357542;26;20344;-60
2024/04/18 11:02:06;;;;;;;2.65;0.70;;;13.50;57.50;;;;;;5363711;26;20000;-59
2024/04/18 11:04:32;;;;;;;1.25;0.70;;;13.70;57.00;;;;;;5352849;26;20000;-62
2024/04/18 11:06:59;;;;;;;1.73;0.60;;;14.00;56.30;;;;;;5356632;26;20011;-64
2024/04/18 11:09:25;;;;;;;1.50;0.63;;;14.20;55.80;;;;;;5352932;26;20011;-64
2024/04/18 11:11:50;;;;;;;2.83;1.10;;;14.40;55.50;;;;;;5341344;26;20447;-63
2024/04/18 11:14:17;;;;;;;2.03;0.80;;;14.40;54.80;;;;;;5362030;26;20015;-65
2024/04/18 11:16:44;;;;;;;2.00;0.80;;;14.40;54.60;;;;;;5356744;26;20579;-64
2024/04/18 11:19:09;;;;;;;2.05;0.80;;;14.30;54.60;;;;;;5360437;26;20498;-63
2024/04/18 11:21:35;;;;;;;2.72;1.10;;;14.10;54.80;;;;;;5348783;26;20275;-63
2024/04/18 11:24:00;;;;;;;2.13;0.70;;;14.00;54.90;;;;;;5350859;26;20522;-66
2024/04/18 11:26:27;;;;;;;2.08;0.90;;;13.90;55.10;;;;;;5355271;26;20483;-62
2024/04/18 11:28:56;;;;;;;2.42;0.90;;;13.80;55.10;;;;;;5351725;26;20410;-64
2024/04/18 11:31:22;;;;;;;2.97;0.95;;;13.70;55.30;;;;;;5356271;26;20005;-64
2024/04/18 11:33:48;;;;;;;2.17;0.80;;;13.80;55.70;;;;;;5363809;26;19997;-63
2024/04/18 11:36:15;;;;;;;2.10;0.90;;;14.00;55.80;;;;;;5368577;26;20004;-64
2024/04/18 11:38:40;;;;;;;1.70;0.77;;;14.00;55.50;;;;;;5353407;26;20015;-64
2024/04/18 11:41:06;;;;;;;2.40;0.85;;;14.00;54.70;;;;;;5360656;26;19997;-64
2024/04/18 11:43:32;;;;;;;2.63;0.88;;;13.90;54.60;;;;;;5363423;26;20007;-65
2024/04/18 11:45:58;;;;;;;1.95;0.80;;;13.80;54.70;;;;;;5367733;26;20475;-63
2024/04/18 11:48:23;;;;;;;3.08;0.90;;;13.80;55.00;;;;;;5365751;26;20307;-64
2024/04/18 11:50:49;;;;;;;2.38;0.88;;;14.00;55.20;;;;;;5371530;26;20011;-63
2024/04/18 11:53:15;;;;;;;5.93;1.08;;;14.40;55.20;;;;;;5366756;26;20356;-63
2024/04/18 11:55:40;;;;;;;5.43;1.10;;;14.60;54.70;;;;;;5357675;26;20350;-64
2024/04/18 11:58:06;;;;;;;3.42;1.00;;;14.80;54.30;;;;;;5364495;26;20040;-61
2024/04/18 12:00:32;;;;;;;2.35;0.88;;;14.90;53.70;;;;;;5367820;26;20438;-63
2024/04/18 12:02:58;;;;;;;3.50;1.20;;;15.00;53.00;;;;;;5348719;26;20485;-64
2024/04/18 12:05:24;;;;;;;2.47;1.05;;;15.00;52.90;;;;;;5363058;26;19997;-63
2024/04/18 12:07:50;;;;;;;2.00;0.85;;;14.90;52.60;;;;;;5357819;26;20335;-61
2024/04/18 12:10:16;;;;;;;3.15;0.90;;;14.90;52.90;;;;;;5360880;26;20115;-61
2024/04/18 12:12:42;;;;;;;2.38;1.00;;;15.00;53.00;;;;;;5364751;26;20345;-65
2024/04/18 12:15:09;;;;;;;2.92;0.80;;;15.10;52.60;;;;;;5359163;26;19997;-63
2024/04/18 12:17:35;;;;;;;5.75;1.08;;;15.40;52.00;;;;;;5348329;26;20455;-64
2024/04/18 12:20:01;;;;;;;2.40;0.90;;;15.40;50.10;;;;;;5370062;26;20056;-63
2024/04/18 12:22:26;;;;;;;2.80;1.05;;;15.50;50.30;;;;;;5362164;26;19997;-63
2024/04/18 12:24:52;;;;;;;2.75;0.70;;;15.70;49.90;;;;;;5359830;26;20525;-63
2024/04/18 12:27:18;;;;;;;2.08;0.70;;;15.70;48.90;;;;;;5360784;26;20015;-64
2024/04/18 12:29:46;;;;;;;2.00;0.98;;;15.90;48.60;;;;;;5353834;26;20082;-63
2024/04/18 12:32:19;;;;;;;2.55;0.90;;;16.00;48.10;;;;;;5365598;26;20001;-64
2024/04/18 12:34:45;;;;;;;0.98;0.60;;;16.00;47.20;;;;;;5357186;26;20000;-62
2024/04/18 12:37:11;;;;;;;1.77;0.70;;;16.00;46.80;;;;;;5369761;26;19999;-63
2024/04/18 12:39:37;;;;;;;2.28;0.70;;;15.90;46.90;;;;;;5362670;26;20331;-63
2024/04/18 12:42:03;;;;;;;1.17;0.70;;;15.80;46.90;;;;;;5367209;26;20000;-64
2024/04/18 12:44:28;;;;;;;3.05;0.90;;;15.50;46.60;;;;;;5350557;26;20077;-63
2024/04/18 12:46:54;;;;;;;2.22;0.90;;;15.40;46.50;;;;;;5352561;26;20496;-63
2024/04/18 12:49:19;;;;;;;1.80;0.90;;;15.40;46.70;;;;;;5354567;26;20074;-63